Time;durP1;ratioP1;P1;durP2;ratioP2;P2;SDS_P1;SDS_P2;PMS_P1;PMS_P2;Temp;Humidity;BMP_temperature;BMP_pressure;BME280_temperature;BME280_humidity;BME280_pressure;Samples;Min_cycle;Max_cycle;Signal;HPM_P1;HPM_P2
2020/12/14 00:00:01;;;;;;;17.80;12.93;;;6.40;99.90;;;;;;5065858;28;20687;-53
2020/12/14 00:02:29;;;;;;;19.00;12.70;;;6.30;99.90;;;;;;5063389;28;20662;-54
2020/12/14 00:04:56;;;;;;;15.87;10.23;;;6.20;99.90;;;;;;5061866;28;20205;-55
2020/12/14 00:07:23;;;;;;;15.07;9.83;;;6.30;99.90;;;;;;5064129;28;20195;-56
2020/12/14 00:09:50;;;;;;;13.77;8.33;;;6.30;99.90;;;;;;5064600;28;20206;-56
2020/12/14 00:12:16;;;;;;;14.53;8.23;;;6.50;99.90;;;;;;5065040;28;20233;-55
2020/12/14 00:14:43;;;;;;;15.97;8.90;;;6.50;99.90;;;;;;5064184;28;20209;-55
2020/12/14 00:17:09;;;;;;;13.40;8.10;;;6.50;99.90;;;;;;5065212;28;20217;-55
2020/12/14 00:19:35;;;;;;;15.13;8.83;;;6.40;99.90;;;;;;5061666;28;20201;-57
2020/12/14 00:22:02;;;;;;;15.80;8.60;;;6.40;99.90;;;;;;5064060;28;20221;-57
2020/12/14 00:24:29;;;;;;;12.53;7.90;;;6.50;99.90;;;;;;5064561;28;20206;-54
2020/12/14 00:26:55;;;;;;;14.90;7.93;;;6.50;99.90;;;;;;5061451;28;20202;-54
2020/12/14 00:29:22;;;;;;;13.23;7.50;;;6.80;99.90;;;;;;5061359;28;20538;-58
2020/12/14 00:31:51;;;;;;;14.23;8.23;;;6.70;99.90;;;;;;5063028;28;20226;-59
2020/12/14 00:34:18;;;;;;;14.00;7.70;;;6.70;99.90;;;;;;5065881;28;20202;-56
2020/12/14 00:36:45;;;;;;;12.50;7.43;;;6.70;99.90;;;;;;5062273;28;20194;-57
2020/12/14 00:39:11;;;;;;;13.90;7.60;;;6.70;99.90;;;;;;5063765;28;20202;-52
2020/12/14 00:41:38;;;;;;;12.73;7.23;;;6.60;99.90;;;;;;5063935;28;20221;-55
2020/12/14 00:44:05;;;;;;;16.03;8.37;;;6.50;99.90;;;;;;5058059;28;20206;-56
2020/12/14 00:46:31;;;;;;;12.17;7.23;;;6.40;99.90;;;;;;5064121;28;20202;-51
2020/12/14 00:48:57;;;;;;;18.07;9.30;;;6.40;99.90;;;;;;5059264;28;20194;-55
2020/12/14 00:51:27;;;;;;;15.87;9.33;;;6.30;99.90;;;;;;5062059;28;20226;-52
2020/12/14 00:53:54;;;;;;;17.50;11.47;;;6.20;99.90;;;;;;5058165;28;20210;-56
2020/12/14 00:56:20;;;;;;;17.40;10.10;;;6.10;99.90;;;;;;5066611;28;20198;-53
2020/12/14 00:58:47;;;;;;;15.33;8.17;;;6.00;99.90;;;;;;5066337;28;20679;-58
2020/12/14 01:01:15;;;;;;;16.33;8.97;;;6.10;99.90;;;;;;5064017;28;20215;-55
2020/12/14 01:03:42;;;;;;;16.33;8.93;;;6.40;99.90;;;;;;5060214;28;20209;-58
2020/12/14 01:06:08;;;;;;;17.07;9.77;;;6.50;99.90;;;;;;5061986;28;20293;-53
2020/12/14 01:08:35;;;;;;;17.70;10.50;;;6.60;99.90;;;;;;5059672;28;20213;-59
2020/12/14 01:11:01;;;;;;;20.47;11.50;;;6.50;99.90;;;;;;5063234;28;20269;-53
2020/12/14 01:13:28;;;;;;;16.87;10.90;;;6.50;99.90;;;;;;5059520;28;20205;-58
2020/12/14 01:15:55;;;;;;;18.83;12.67;;;6.40;99.90;;;;;;5056374;28;20665;-55
2020/12/14 01:18:21;;;;;;;16.57;10.07;;;6.40;99.90;;;;;;5058068;28;20680;-56
2020/12/14 01:20:48;;;;;;;17.07;9.27;;;6.40;99.90;;;;;;5063771;28;20222;-56
2020/12/14 01:23:14;;;;;;;16.33;10.27;;;6.40;99.90;;;;;;5058730;28;20197;-58
2020/12/14 01:25:40;;;;;;;16.87;9.83;;;6.40;99.90;;;;;;5068534;28;20209;-54
2020/12/14 01:28:07;;;;;;;16.97;9.87;;;6.30;99.90;;;;;;5066292;28;20207;-57
2020/12/14 01:30:33;;;;;;;18.07;10.40;;;6.40;99.90;;;;;;5062679;28;20232;-56
2020/12/14 01:33:01;;;;;;;18.03;9.20;;;6.50;99.90;;;;;;5063911;28;20207;-54
2020/12/14 01:35:27;;;;;;;15.80;10.03;;;6.40;99.90;;;;;;5060616;28;20685;-52
2020/12/14 01:37:54;;;;;;;16.60;9.97;;;6.40;99.90;;;;;;5067127;28;20210;-52
2020/12/14 01:40:21;;;;;;;17.93;12.53;;;6.30;99.90;;;;;;5062401;28;20223;-56
2020/12/14 01:42:48;;;;;;;19.77;15.00;;;6.20;99.90;;;;;;5060600;28;20873;-56
2020/12/14 01:45:15;;;;;;;17.73;12.30;;;6.40;99.90;;;;;;5058917;28;20206;-54
2020/12/14 01:47:43;;;;;;;14.33;9.63;;;6.20;99.90;;;;;;5060236;28;20207;-56
2020/12/14 01:50:12;;;;;;;16.60;9.13;;;6.30;99.90;;;;;;5057706;28;20214;-58
2020/12/14 01:52:40;;;;;;;14.00;8.50;;;6.10;99.90;;;;;;5056889;28;20198;-51
2020/12/14 01:55:08;;;;;;;13.83;8.23;;;6.20;99.90;;;;;;5060774;28;20658;-58
2020/12/14 01:57:37;;;;;;;17.20;7.80;;;6.10;99.90;;;;;;5062010;28;20209;-54
2020/12/14 02:00:06;;;;;;;14.37;8.00;;;6.00;99.90;;;;;;5066463;28;20206;-51
2020/12/14 02:02:32;;;;;;;15.63;9.00;;;6.00;99.90;;;;;;5067984;28;20206;-54
2020/12/14 02:04:59;;;;;;;17.63;11.63;;;6.00;99.90;;;;;;5062761;28;20201;-58
2020/12/14 02:07:26;;;;;;;17.03;11.80;;;6.00;99.90;;;;;;5070146;28;20212;-57
2020/12/14 02:09:53;;;;;;;14.57;9.50;;;6.00;99.90;;;;;;5067342;28;20208;-52
2020/12/14 02:12:22;;;;;;;13.47;8.00;;;6.10;99.90;;;;;;5064394;28;20585;-54
2020/12/14 02:14:50;;;;;;;15.90;8.03;;;6.10;99.90;;;;;;5064084;28;20210;-58
2020/12/14 02:17:19;;;;;;;13.03;6.93;;;6.20;99.90;;;;;;5070523;28;20210;-53
2020/12/14 02:19:45;;;;;;;13.07;7.40;;;6.20;99.90;;;;;;5068739;28;20207;-56
2020/12/14 02:22:12;;;;;;;12.87;7.50;;;6.00;99.90;;;;;;5058373;28;20479;-54
2020/12/14 02:24:39;;;;;;;13.23;7.33;;;6.00;99.90;;;;;;5067263;28;20195;-57
2020/12/14 02:27:05;;;;;;;15.27;7.83;;;6.00;99.90;;;;;;5059745;28;20566;-51
2020/12/14 02:29:31;;;;;;;14.67;8.83;;;5.90;99.90;;;;;;5067876;28;20202;-52
2020/12/14 02:31:58;;;;;;;14.30;8.47;;;5.90;99.90;;;;;;5064428;28;20222;-52
2020/12/14 02:34:24;;;;;;;14.93;8.33;;;5.90;99.90;;;;;;5068916;28;20213;-57
2020/12/14 02:36:50;;;;;;;11.53;6.63;;;5.80;99.90;;;;;;5067651;28;20221;-54
2020/12/14 02:39:16;;;;;;;11.43;6.50;;;5.90;99.90;;;;;;5073867;28;20669;-53
2020/12/14 02:41:44;;;;;;;9.63;5.60;;;5.80;99.90;;;;;;5071143;28;20224;-60
2020/12/14 02:44:10;;;;;;;12.07;6.70;;;5.90;99.90;;;;;;5073619;28;20206;-56
2020/12/14 02:46:36;;;;;;;12.20;6.80;;;6.00;99.90;;;;;;5059218;28;20203;-56
2020/12/14 02:49:02;;;;;;;9.63;6.20;;;6.00;99.90;;;;;;5072404;28;20202;-55
2020/12/14 02:51:29;;;;;;;11.17;7.00;;;6.00;99.90;;;;;;5069161;28;20222;-57
2020/12/14 02:53:55;;;;;;;12.43;7.33;;;5.80;99.90;;;;;;5073143;28;20198;-53
2020/12/14 02:56:21;;;;;;;13.43;6.70;;;5.90;99.90;;;;;;5058302;28;20577;-57
2020/12/14 02:58:48;;;;;;;11.47;7.87;;;5.80;99.90;;;;;;5055769;28;20195;-57
2020/12/14 03:01:15;;;;;;;13.33;7.70;;;6.00;99.90;;;;;;5054619;28;20229;-57
2020/12/14 03:03:41;;;;;;;10.33;6.50;;;5.80;99.90;;;;;;5066004;28;20199;-52
2020/12/14 03:06:07;;;;;;;11.67;6.77;;;5.70;99.90;;;;;;5054883;28;20234;-55
2020/12/14 03:08:33;;;;;;;11.63;7.40;;;5.80;99.90;;;;;;5070971;28;20209;-52
2020/12/14 03:11:00;;;;;;;10.03;6.53;;;5.80;99.90;;;;;;5062047;28;20605;-55
2020/12/14 03:13:26;;;;;;;8.90;5.00;;;5.90;99.90;;;;;;5061634;28;20678;-55
2020/12/14 03:15:53;;;;;;;9.20;5.47;;;5.90;99.90;;;;;;5067801;28;20202;-56
2020/12/14 03:18:19;;;;;;;7.67;5.23;;;5.80;99.90;;;;;;5069994;28;20648;-54
2020/12/14 03:20:46;;;;;;;9.47;5.93;;;5.70;99.90;;;;;;5069385;28;20214;-55
2020/12/14 03:23:13;;;;;;;8.67;5.33;;;5.70;99.90;;;;;;5066796;28;20665;-57
2020/12/14 03:25:41;;;;;;;9.63;5.90;;;5.90;99.90;;;;;;5062913;28;20199;-58
2020/12/14 03:28:07;;;;;;;9.97;5.80;;;5.90;99.90;;;;;;5061768;28;20265;-58
2020/12/14 03:30:34;;;;;;;8.27;5.90;;;6.10;99.90;;;;;;5064199;28;20222;-53
2020/12/14 03:33:01;;;;;;;9.87;5.83;;;6.20;99.90;;;;;;5072248;28;20205;-54
2020/12/14 03:35:27;;;;;;;8.50;5.50;;;6.20;99.90;;;;;;5061381;28;20195;-53
2020/12/14 03:37:53;;;;;;;7.87;5.63;;;6.20;99.90;;;;;;5070173;28;20692;-53
2020/12/14 03:40:20;;;;;;;9.23;5.67;;;6.20;99.90;;;;;;5067601;28;20226;-56
2020/12/14 03:42:46;;;;;;;10.30;5.73;;;6.20;99.90;;;;;;5063045;28;20195;-51
2020/12/14 03:45:12;;;;;;;10.97;5.33;;;6.30;99.90;;;;;;5071737;28;20209;-57
2020/12/14 03:47:39;;;;;;;7.33;4.93;;;6.30;99.90;;;;;;5064941;28;20199;-58
2020/12/14 03:50:06;;;;;;;8.40;5.63;;;6.30;99.90;;;;;;5061244;28;20214;-52
2020/12/14 03:52:32;;;;;;;13.17;5.33;;;6.30;99.90;;;;;;5056023;28;20228;-52
2020/12/14 03:54:58;;;;;;;9.67;5.10;;;6.60;99.90;;;;;;5054435;28;20674;-53
2020/12/14 03:57:25;;;;;;;7.53;5.30;;;6.60;99.90;;;;;;5071970;28;20212;-57
2020/12/14 03:59:51;;;;;;;6.70;4.80;;;6.70;99.90;;;;;;5054075;28;20657;-53
2020/12/14 04:02:17;;;;;;;8.47;5.50;;;6.60;99.90;;;;;;5072557;28;20226;-55
2020/12/14 04:04:44;;;;;;;9.00;5.63;;;6.70;99.90;;;;;;5057104;28;20246;-53
2020/12/14 04:07:11;;;;;;;8.13;5.17;;;6.90;99.90;;;;;;5071226;28;20211;-58
2020/12/14 04:09:37;;;;;;;8.50;5.17;;;6.80;99.90;;;;;;5071395;28;20202;-55
2020/12/14 04:12:03;;;;;;;9.87;5.93;;;6.80;99.90;;;;;;5063799;28;20238;-56
2020/12/14 04:14:30;;;;;;;8.70;5.57;;;6.80;99.90;;;;;;5053172;28;20678;-53
2020/12/14 04:16:56;;;;;;;8.07;5.40;;;6.70;99.90;;;;;;5055126;28;20271;-54
2020/12/14 04:19:25;;;;;;;8.43;5.50;;;6.80;99.90;;;;;;5066133;28;20214;-56
2020/12/14 04:21:52;;;;;;;9.40;5.30;;;6.70;99.90;;;;;;5068091;28;20222;-52
2020/12/14 04:24:19;;;;;;;9.27;5.67;;;6.60;99.90;;;;;;5070407;28;20252;-52
2020/12/14 04:26:51;;;;;;;9.43;5.83;;;6.60;99.90;;;;;;5054551;28;20290;-55
2020/12/14 04:29:17;;;;;;;14.53;5.63;;;6.60;99.90;;;;;;5064186;28;20208;-57
2020/12/14 04:31:43;;;;;;;9.07;5.40;;;6.60;99.90;;;;;;5060789;28;20668;-55
2020/12/14 04:34:10;;;;;;;8.57;5.23;;;6.60;99.90;;;;;;5065944;28;20199;-56
2020/12/14 04:36:36;;;;;;;10.60;5.47;;;6.70;99.90;;;;;;5067976;28;20198;-58
2020/12/14 04:39:02;;;;;;;7.27;4.70;;;6.70;99.90;;;;;;5061283;28;20209;-57
2020/12/14 04:41:30;;;;;;;9.43;4.93;;;6.70;99.90;;;;;;5059246;28;20232;-57
2020/12/14 04:43:58;;;;;;;9.00;4.83;;;6.70;99.90;;;;;;5061578;28;20728;-51
2020/12/14 04:46:29;;;;;;;6.97;4.73;;;6.80;99.90;;;;;;5064624;28;20217;-57
2020/12/14 04:48:56;;;;;;;7.47;4.50;;;7.00;99.90;;;;;;5072740;28;20210;-54
2020/12/14 04:51:22;;;;;;;7.03;4.80;;;7.10;99.90;;;;;;5058195;28;20230;-54
2020/12/14 04:53:50;;;;;;;7.00;4.50;;;7.10;99.90;;;;;;5052000;28;20207;-57
2020/12/14 04:56:18;;;;;;;7.60;4.57;;;7.00;99.90;;;;;;5063742;28;20213;-56
2020/12/14 04:58:46;;;;;;;6.93;5.10;;;7.10;99.90;;;;;;5063697;28;20223;-59
2020/12/14 05:01:12;;;;;;;5.90;4.13;;;7.10;99.90;;;;;;5065886;28;20222;-56
2020/12/14 05:03:38;;;;;;;6.73;4.67;;;7.20;99.90;;;;;;5069981;28;20204;-54
2020/12/14 05:06:04;;;;;;;7.97;4.60;;;7.20;99.90;;;;;;5067243;28;20209;-53
2020/12/14 05:08:31;;;;;;;7.00;4.33;;;7.10;99.90;;;;;;5066440;28;20656;-60
2020/12/14 05:10:58;;;;;;;6.33;4.13;;;7.00;99.90;;;;;;5060084;28;20226;-55
2020/12/14 05:13:26;;;;;;;7.10;4.30;;;7.20;99.90;;;;;;5060858;28;20202;-56
2020/12/14 05:15:54;;;;;;;7.90;4.33;;;7.20;99.90;;;;;;5064927;28;20669;-54
2020/12/14 05:18:23;;;;;;;8.50;4.47;;;7.20;99.90;;;;;;5065730;28;20285;-54
2020/12/14 05:20:57;;;;;;;7.63;4.37;;;7.20;99.90;;;;;;5068360;28;20572;-56
2020/12/14 05:23:23;;;;;;;8.90;4.70;;;7.10;99.90;;;;;;5049748;28;20198;-58
2020/12/14 05:25:50;;;;;;;8.33;4.13;;;7.10;99.90;;;;;;5051249;28;20203;-55
2020/12/14 05:28:17;;;;;;;5.10;3.90;;;7.00;99.90;;;;;;5053759;28;20194;-51
2020/12/14 05:30:44;;;;;;;6.83;4.13;;;6.90;99.90;;;;;;5071890;28;20606;-53
2020/12/14 05:33:13;;;;;;;5.23;4.10;;;7.10;99.90;;;;;;5056086;28;20210;-51
2020/12/14 05:35:40;;;;;;;6.00;3.90;;;7.10;99.90;;;;;;5065768;28;20194;-57
2020/12/14 05:38:19;;;;;;;5.73;3.80;;;7.10;99.90;;;;;;5067631;28;20198;-57
2020/12/14 05:40:49;;;;;;;8.40;3.60;;;7.10;99.90;;;;;;5062560;28;20318;-51
2020/12/14 05:43:17;;;;;;;6.37;4.30;;;7.20;99.90;;;;;;5051413;28;20281;-58
2020/12/14 05:45:45;;;;;;;6.30;3.80;;;7.20;99.90;;;;;;5061967;28;20209;-51
2020/12/14 05:48:27;;;;;;;4.93;3.50;;;7.10;99.90;;;;;;5052191;28;20199;-53
2020/12/14 05:50:55;;;;;;;5.17;3.57;;;7.00;99.90;;;;;;5051479;28;20642;-52
2020/12/14 05:53:22;;;;;;;7.23;3.83;;;7.00;99.90;;;;;;5051231;28;20606;-56
2020/12/14 05:55:49;;;;;;;6.03;3.57;;;7.00;99.90;;;;;;5052516;28;20230;-57
2020/12/14 05:58:16;;;;;;;5.87;4.20;;;7.00;99.90;;;;;;5063364;28;20209;-59
2020/12/14 06:00:46;;;;;;;4.97;3.67;;;7.20;99.90;;;;;;5057494;28;20219;-56
2020/12/14 06:03:13;;;;;;;5.70;3.53;;;7.10;99.90;;;;;;5059425;28;20214;-56
2020/12/14 06:05:41;;;;;;;5.80;3.40;;;7.10;99.90;;;;;;5062719;28;20743;-52
2020/12/14 06:08:25;;;;;;;7.00;3.97;;;7.10;99.90;;;;;;5056124;28;20658;-53
2020/12/14 06:10:57;;;;;;;6.70;4.07;;;7.30;99.90;;;;;;5055991;28;20222;-53
2020/12/14 06:13:30;;;;;;;5.20;3.70;;;7.10;99.90;;;;;;5054956;28;20202;-56
2020/12/14 06:16:00;;;;;;;7.33;4.00;;;7.40;99.90;;;;;;5060872;28;20218;-55
2020/12/14 06:18:32;;;;;;;8.80;5.23;;;7.30;99.90;;;;;;5055990;28;20195;-55
2020/12/14 06:20:59;;;;;;;8.07;5.20;;;7.30;99.90;;;;;;5056326;28;20222;-57
2020/12/14 06:23:30;;;;;;;6.20;3.90;;;7.10;99.90;;;;;;5055099;28;20225;-53
2020/12/14 06:25:57;;;;;;;8.80;3.97;;;7.20;99.90;;;;;;5060686;28;20584;-57
2020/12/14 06:28:30;;;;;;;7.07;5.20;;;7.20;99.90;;;;;;5057639;28;20661;-56
2020/12/14 06:30:57;;;;;;;6.23;5.10;;;7.20;99.90;;;;;;5055071;28;21547;-54
2020/12/14 06:33:34;;;;;;;5.53;4.27;;;7.10;99.90;;;;;;5057124;28;20578;-55
2020/12/14 06:36:17;;;;;;;7.53;4.23;;;7.20;99.90;;;;;;5058393;28;20206;-54
2020/12/14 06:38:44;;;;;;;6.00;4.50;;;7.30;99.90;;;;;;5058557;28;20210;-54
2020/12/14 06:41:15;;;;;;;7.40;4.20;;;7.40;99.90;;;;;;5070636;28;20219;-51
2020/12/14 06:43:43;;;;;;;5.87;3.60;;;7.30;99.90;;;;;;5058753;28;20202;-57
2020/12/14 06:46:09;;;;;;;5.60;3.90;;;7.30;99.90;;;;;;5059404;28;20207;-57
2020/12/14 06:48:38;;;;;;;6.97;4.20;;;7.30;99.90;;;;;;5054695;28;20195;-56
2020/12/14 06:51:05;;;;;;;6.33;3.83;;;7.20;99.90;;;;;;5058283;28;20227;-56
2020/12/14 06:53:44;;;;;;;6.93;4.33;;;7.30;99.90;;;;;;5054354;28;20199;-55
2020/12/14 06:56:12;;;;;;;5.87;3.80;;;7.30;99.90;;;;;;5060388;28;20230;-55
2020/12/14 06:58:41;;;;;;;3.87;3.40;;;7.30;99.90;;;;;;5056189;28;20202;-58
2020/12/14 07:01:33;;;;;;;5.67;3.63;;;7.30;99.90;;;;;;5061850;28;20314;-59
2020/12/14 07:04:01;;;;;;;7.13;4.00;;;7.30;99.90;;;;;;5064963;28;20286;-57
2020/12/14 07:06:28;;;;;;;6.00;4.20;;;7.30;99.90;;;;;;5060136;28;20207;-56
2020/12/14 07:08:55;;;;;;;5.37;3.33;;;7.30;99.90;;;;;;5054413;28;20294;-55
2020/12/14 07:11:23;;;;;;;6.77;4.90;;;7.20;99.90;;;;;;5054167;28;20255;-59
2020/12/14 07:13:50;;;;;;;7.00;4.77;;;7.30;99.90;;;;;;5055003;28;20207;-56
2020/12/14 07:16:19;;;;;;;6.67;3.73;;;7.10;99.90;;;;;;5054265;28;20211;-56
2020/12/14 07:18:47;;;;;;;5.27;4.20;;;7.20;99.90;;;;;;5056956;28;20253;-54
2020/12/14 07:21:15;;;;;;;4.63;3.10;;;7.10;99.90;;;;;;5054476;28;20231;-54
2020/12/14 07:23:43;;;;;;;6.93;3.23;;;7.30;99.90;;;;;;5056863;28;20198;-56
2020/12/14 07:26:12;;;;;;;6.13;3.50;;;7.10;99.90;;;;;;5055746;28;20203;-57
2020/12/14 07:28:41;;;;;;;6.37;3.53;;;7.10;99.90;;;;;;5062309;28;20934;-57
2020/12/14 07:31:09;;;;;;;5.13;3.30;;;7.10;99.90;;;;;;5061577;28;20873;-51
2020/12/14 07:33:36;;;;;;;5.07;4.00;;;7.10;99.90;;;;;;5065129;28;20207;-53
2020/12/14 07:36:04;;;;;;;4.97;3.23;;;7.10;99.90;;;;;;5061309;28;20927;-58
2020/12/14 07:38:30;;;;;;;6.20;3.37;;;7.20;99.90;;;;;;5063292;28;20198;-54
2020/12/14 07:41:04;;;;;;;6.53;3.30;;;7.10;99.90;;;;;;5066659;28;20249;-54
2020/12/14 07:43:40;;;;;;;6.23;4.00;;;7.00;99.90;;;;;;5055924;28;20201;-54
2020/12/14 07:46:20;;;;;;;5.87;4.03;;;7.00;99.90;;;;;;5058535;28;20655;-56
2020/12/14 07:48:57;;;;;;;6.77;4.13;;;7.00;99.90;;;;;;5063929;28;20289;-52
2020/12/14 07:51:24;;;;;;;5.90;4.03;;;7.00;99.90;;;;;;5052997;28;20685;-57
2020/12/14 07:53:51;;;;;;;6.87;4.03;;;6.90;99.90;;;;;;5064968;28;20203;-54
2020/12/14 07:56:18;;;;;;;3.97;2.97;;;7.00;99.90;;;;;;5053994;28;20623;-53
2020/12/14 07:58:46;;;;;;;6.73;3.67;;;6.90;99.90;;;;;;5061456;28;20665;-56
2020/12/14 08:01:14;;;;;;;3.80;3.33;;;6.90;99.90;;;;;;5053301;28;20650;-55
2020/12/14 08:03:40;;;;;;;4.73;3.47;;;7.00;99.90;;;;;;5062537;28;20283;-54
2020/12/14 08:06:14;;;;;;;6.63;3.60;;;7.00;99.90;;;;;;5053315;28;20207;-56
2020/12/14 08:08:43;;;;;;;4.67;3.00;;;7.00;99.90;;;;;;5061616;28;20198;-54
2020/12/14 08:11:11;;;;;;;5.97;3.27;;;7.10;99.90;;;;;;5053506;28;20233;-58
2020/12/14 08:13:38;;;;;;;5.77;3.07;;;7.20;99.90;;;;;;5060375;28;20211;-54
2020/12/14 08:16:06;;;;;;;4.47;2.53;;;7.20;99.90;;;;;;5055812;28;20264;-56
2020/12/14 08:18:35;;;;;;;6.63;3.40;;;7.40;99.90;;;;;;5052784;28;20654;-55
2020/12/14 08:21:01;;;;;;;4.10;2.47;;;7.50;99.90;;;;;;5055790;28;20231;-56
2020/12/14 08:23:30;;;;;;;3.27;2.20;;;7.70;99.90;;;;;;5052832;28;20701;-56
2020/12/14 08:25:57;;;;;;;6.17;3.13;;;7.90;99.90;;;;;;5055893;28;20203;-57
2020/12/14 08:28:31;;;;;;;3.33;2.50;;;8.00;99.90;;;;;;5052943;28;20203;-59
2020/12/14 08:30:57;;;;;;;4.40;2.60;;;8.10;99.90;;;;;;5056350;28;20247;-59
2020/12/14 08:33:25;;;;;;;3.03;2.70;;;8.30;99.90;;;;;;5052882;28;20213;-56
2020/12/14 08:35:53;;;;;;;3.27;2.43;;;8.40;99.90;;;;;;5058590;28;20662;-58
2020/12/14 08:38:21;;;;;;;3.23;2.20;;;8.40;99.90;;;;;;5052768;28;20661;-52
2020/12/14 08:40:52;;;;;;;3.40;2.50;;;8.30;99.90;;;;;;5064695;28;20847;-58
2020/12/14 08:43:20;;;;;;;3.67;1.80;;;8.40;99.90;;;;;;5056034;28;20204;-57
2020/12/14 08:46:00;;;;;;;3.37;1.80;;;8.30;99.90;;;;;;5056660;28;20206;-54
2020/12/14 08:48:28;;;;;;;4.57;2.30;;;8.30;99.90;;;;;;5057096;28;20198;-56
2020/12/14 08:51:09;;;;;;;2.33;1.70;;;8.30;99.90;;;;;;5054134;28;20227;-54
2020/12/14 08:53:35;;;;;;;5.43;3.80;;;8.30;99.90;;;;;;5071506;28;20547;-54
2020/12/14 08:56:05;;;;;;;3.70;2.07;;;8.50;99.90;;;;;;5063986;28;20758;-53
2020/12/14 08:58:31;;;;;;;2.40;1.97;;;8.50;99.90;;;;;;5053080;28;20195;-57
2020/12/14 09:01:09;;;;;;;5.13;2.20;;;8.40;99.90;;;;;;5055918;28;20785;-56
2020/12/14 09:03:49;;;;;;;5.20;1.80;;;8.50;99.90;;;;;;5052240;28;20207;-53
2020/12/14 09:06:23;;;;;;;4.33;2.83;;;8.40;99.90;;;;;;5057503;28;20202;-55
2020/12/14 09:09:07;;;;;;;2.10;1.90;;;8.40;99.90;;;;;;5052409;28;20604;-52
2020/12/14 09:11:35;;;;;;;3.00;1.70;;;8.40;99.90;;;;;;5059208;28;20226;-58
2020/12/14 09:14:03;;;;;;;3.03;2.00;;;8.40;99.90;;;;;;5052021;28;20206;-59
2020/12/14 09:16:30;;;;;;;6.63;2.10;;;8.40;99.90;;;;;;5058244;28;20194;-55
2020/12/14 09:18:57;;;;;;;3.07;2.00;;;8.40;99.90;;;;;;5055431;28;20199;-56
2020/12/14 09:21:24;;;;;;;3.60;2.00;;;8.50;99.90;;;;;;5059296;28;20697;-56
2020/12/14 09:24:17;;;;;;;3.23;2.33;;;8.60;99.90;;;;;;5053062;28;20249;-58
2020/12/14 09:26:46;;;;;;;3.67;1.83;;;8.60;99.90;;;;;;5052415;28;20305;-56
2020/12/14 09:29:12;;;;;;;3.27;2.33;;;8.60;99.90;;;;;;5055038;28;20210;-55
2020/12/14 09:31:40;;;;;;;2.90;1.83;;;8.70;99.90;;;;;;5062564;28;20684;-55
2020/12/14 09:34:07;;;;;;;2.70;2.03;;;8.70;99.90;;;;;;5064742;28;20755;-58
2020/12/14 09:36:33;;;;;;;4.63;1.83;;;8.80;99.90;;;;;;5068778;28;20296;-58
2020/12/14 09:39:00;;;;;;;2.57;1.70;;;8.80;99.90;;;;;;5067589;28;20206;-56
2020/12/14 09:41:31;;;;;;;2.60;1.87;;;9.00;99.90;;;;;;5062608;28;20225;-56
2020/12/14 09:43:57;;;;;;;2.47;1.70;;;8.90;99.90;;;;;;5051294;28;20669;-57
2020/12/14 09:46:25;;;;;;;3.33;2.10;;;8.80;99.90;;;;;;5051173;28;20564;-58
2020/12/14 09:48:51;;;;;;;3.13;2.07;;;8.80;99.90;;;;;;5058046;28;20221;-57
2020/12/14 09:51:18;;;;;;;4.37;1.50;;;8.90;99.90;;;;;;5051068;28;20231;-56
2020/12/14 09:53:45;;;;;;;4.10;1.80;;;9.00;99.90;;;;;;5058786;28;20366;-58
2020/12/14 09:56:11;;;;;;;2.83;1.60;;;9.00;99.90;;;;;;5051444;28;20690;-55
2020/12/14 09:58:38;;;;;;;2.87;1.63;;;9.00;99.90;;;;;;5065626;28;20205;-56
2020/12/14 10:01:04;;;;;;;3.07;1.90;;;9.10;99.90;;;;;;5054250;28;20218;-53
2020/12/14 10:03:31;;;;;;;2.97;1.57;;;9.10;99.90;;;;;;5060238;28;20206;-58
2020/12/14 10:05:57;;;;;;;4.70;1.83;;;9.20;99.90;;;;;;5064896;28;20206;-56
2020/12/14 10:08:24;;;;;;;2.47;1.83;;;9.30;99.90;;;;;;5067640;28;20809;-58
2020/12/14 10:10:51;;;;;;;2.03;1.80;;;9.30;99.90;;;;;;5062205;28;20226;-55
2020/12/14 10:13:18;;;;;;;3.67;2.03;;;9.30;99.90;;;;;;5064512;28;20597;-57
2020/12/14 10:15:44;;;;;;;3.93;1.80;;;9.40;99.90;;;;;;5054161;28;20231;-57
2020/12/14 10:18:11;;;;;;;5.83;2.03;;;9.40;99.90;;;;;;5065621;28;20750;-55
2020/12/14 10:20:37;;;;;;;1.77;1.67;;;9.40;99.90;;;;;;5064253;28;20237;-56
2020/12/14 10:23:05;;;;;;;1.60;1.50;;;9.40;99.90;;;;;;5064038;28;20202;-56
2020/12/14 10:25:32;;;;;;;2.00;1.53;;;9.40;99.90;;;;;;5059241;28;20207;-58
2020/12/14 10:27:58;;;;;;;3.07;1.60;;;9.40;99.90;;;;;;5059797;28;20214;-55
2020/12/14 10:30:25;;;;;;;2.87;1.50;;;9.40;99.90;;;;;;5066904;28;20218;-57
2020/12/14 10:32:51;;;;;;;3.37;1.60;;;9.40;99.90;;;;;;5063209;28;20222;-56
2020/12/14 10:35:18;;;;;;;5.30;2.33;;;9.40;99.90;;;;;;5065734;28;20581;-55
2020/12/14 10:37:44;;;;;;;6.60;2.57;;;9.40;99.90;;;;;;5063973;28;20714;-57
2020/12/14 10:40:10;;;;;;;2.27;1.33;;;9.50;99.90;;;;;;5066624;28;20204;-55
2020/12/14 10:42:38;;;;;;;5.43;2.03;;;9.50;99.90;;;;;;5060997;28;20249;-57
2020/12/14 10:45:04;;;;;;;2.10;1.33;;;9.60;99.90;;;;;;5066665;28;20213;-54
2020/12/14 10:47:30;;;;;;;1.90;1.67;;;9.40;99.90;;;;;;5065130;28;20206;-60
2020/12/14 10:49:56;;;;;;;5.03;1.53;;;9.40;99.90;;;;;;5057668;28;20345;-56
2020/12/14 10:52:23;;;;;;;2.77;2.03;;;9.30;99.90;;;;;;5062311;28;20218;-58
2020/12/14 10:54:50;;;;;;;3.33;1.90;;;9.10;99.90;;;;;;5062908;28;20230;-60
2020/12/14 10:57:17;;;;;;;3.10;2.00;;;9.00;99.90;;;;;;5062319;28;20703;-55
2020/12/14 10:59:44;;;;;;;3.27;1.70;;;8.90;99.90;;;;;;5071230;28;20198;-59
2020/12/14 11:02:11;;;;;;;3.07;1.40;;;8.80;99.90;;;;;;5063179;28;20222;-59
2020/12/14 11:04:37;;;;;;;2.60;1.47;;;8.80;99.90;;;;;;5065666;28;20194;-57
2020/12/14 11:07:06;;;;;;;3.50;1.37;;;8.90;99.90;;;;;;5071883;28;20227;-58
2020/12/14 11:09:32;;;;;;;5.13;1.60;;;8.90;99.90;;;;;;5060828;28;20257;-57
2020/12/14 11:11:58;;;;;;;2.77;1.50;;;8.90;99.90;;;;;;5058702;28;20311;-54
2020/12/14 11:14:25;;;;;;;3.83;1.67;;;8.90;99.90;;;;;;5066770;28;20198;-57
2020/12/14 11:16:52;;;;;;;3.57;2.03;;;8.90;99.90;;;;;;5068741;28;20241;-57
2020/12/14 11:19:19;;;;;;;3.17;1.70;;;8.90;99.90;;;;;;5063758;28;20234;-57
2020/12/14 11:21:45;;;;;;;3.67;1.43;;;9.00;99.90;;;;;;5059865;28;20252;-56
2020/12/14 11:24:11;;;;;;;3.07;1.93;;;9.00;99.90;;;;;;5060341;28;20207;-59
2020/12/14 11:26:38;;;;;;;2.70;1.63;;;9.00;99.90;;;;;;5060700;28;20214;-57
2020/12/14 11:29:04;;;;;;;2.53;1.60;;;9.10;99.90;;;;;;5064355;28;20271;-58
2020/12/14 11:31:31;;;;;;;2.90;1.73;;;9.10;99.90;;;;;;5059911;28;20802;-56
2020/12/14 11:33:58;;;;;;;3.57;2.00;;;9.10;99.90;;;;;;5061861;28;20210;-56
2020/12/14 11:36:28;;;;;;;3.13;1.70;;;9.10;99.90;;;;;;5062541;28;20203;-58
2020/12/14 11:38:55;;;;;;;3.10;1.60;;;9.10;99.90;;;;;;5062117;28;20215;-58
2020/12/14 11:41:21;;;;;;;4.37;1.80;;;9.10;99.90;;;;;;5062346;28;20248;-56
2020/12/14 11:43:47;;;;;;;2.70;1.67;;;9.20;99.90;;;;;;5062915;28;20199;-57
2020/12/14 11:46:14;;;;;;;1.97;1.40;;;9.20;99.90;;;;;;5063959;28;20209;-56
2020/12/14 11:48:40;;;;;;;3.23;1.83;;;9.20;99.90;;;;;;5065420;28;20201;-57
2020/12/14 11:51:07;;;;;;;2.90;1.83;;;9.20;99.90;;;;;;5062118;28;20230;-54
2020/12/14 11:53:33;;;;;;;1.47;1.37;;;9.10;99.90;;;;;;5064258;28;20724;-55
2020/12/14 11:56:00;;;;;;;2.23;1.57;;;9.20;99.90;;;;;;5063912;28;21676;-59
2020/12/14 11:58:26;;;;;;;2.23;1.53;;;9.20;99.90;;;;;;5064354;28;20206;-59
2020/12/14 12:00:52;;;;;;;2.23;1.40;;;9.30;99.90;;;;;;5060070;28;20223;-57
2020/12/14 12:03:19;;;;;;;2.37;1.40;;;9.30;99.90;;;;;;5061639;28;20202;-57
2020/12/14 12:05:46;;;;;;;3.03;1.47;;;9.30;99.90;;;;;;5064764;28;20320;-58
2020/12/14 12:08:13;;;;;;;2.40;1.33;;;9.30;99.90;;;;;;5060882;28;20207;-57
2020/12/14 12:10:40;;;;;;;3.97;2.10;;;9.30;99.90;;;;;;5058466;28;20219;-56
2020/12/14 12:13:06;;;;;;;2.93;2.00;;;9.40;99.90;;;;;;5060616;28;20331;-57
2020/12/14 12:15:32;;;;;;;4.27;2.23;;;9.40;99.90;;;;;;5061077;28;20195;-58
2020/12/14 12:17:59;;;;;;;2.53;1.27;;;9.40;99.90;;;;;;5065339;28;20241;-56
2020/12/14 12:20:25;;;;;;;1.97;1.50;;;9.30;99.90;;;;;;5063768;28;20621;-59
2020/12/14 12:22:56;;;;;;;3.10;1.80;;;9.30;99.90;;;;;;5061734;28;21153;-57
2020/12/14 12:25:23;;;;;;;3.63;1.60;;;9.20;99.90;;;;;;5059393;28;20202;-57
2020/12/14 12:27:50;;;;;;;1.90;1.40;;;9.10;99.90;;;;;;5061796;28;20210;-58
2020/12/14 12:30:16;;;;;;;1.70;1.60;;;9.10;99.90;;;;;;5061361;28;20211;-58
2020/12/14 12:32:43;;;;;;;3.17;1.80;;;9.10;99.90;;;;;;5061099;28;20333;-56
2020/12/14 12:35:09;;;;;;;2.17;1.93;;;9.10;99.90;;;;;;5063667;28;20674;-57
2020/12/14 12:37:35;;;;;;;3.23;1.80;;;9.30;99.90;;;;;;5062145;28;20203;-51
2020/12/14 12:40:04;;;;;;;1.57;1.23;;;9.20;99.90;;;;;;5062705;28;20697;-56
2020/12/14 12:42:32;;;;;;;2.80;1.83;;;9.30;99.90;;;;;;5064387;28;20198;-59
2020/12/14 12:44:58;;;;;;;3.77;1.93;;;9.40;99.90;;;;;;5059971;28;20548;-58
2020/12/14 12:47:24;;;;;;;2.73;1.83;;;9.50;99.90;;;;;;5060666;28;20846;-54
2020/12/14 12:49:51;;;;;;;1.97;1.53;;;9.70;99.90;;;;;;5059293;28;20705;-55
2020/12/14 12:52:17;;;;;;;1.40;1.30;;;9.90;99.90;;;;;;5061929;28;20225;-54
2020/12/14 12:54:43;;;;;;;2.80;1.40;;;10.00;99.90;;;;;;5060440;28;20586;-59